Weather at Dokka Thomlevold Airfield

Public forecast

Using degrees Celsius for public forecast. Weather courtesy of forecast.io.

Closest aviation weather report (METAR) to Dokka Thomlevold Airfield

Closest report is Oslo Airport, Gardermoen, 51.9 nm (96.2 km) SE.

2024/05/22 20:20 (retrieved 16 minutes ago)

ENGM 222020Z 15005KT CAVOK 20/07 Q1018 NOSIG

Closest aviation forecast (TAF) to Dokka Thomlevold Airfield

Closest forecast is Oslo Airport, Gardermoen, 51.9 nm (96.2 km) SE.

2024/05/22 18:36 (retrieved 2 hours ago)

TAF ENGM 221700Z 2218/2318 14010KT CAVOK BECMG 2223/2301 04008KT BECMG 2309/2311 12012KT TEMPO 2314/2318 SHRA FEW030CB BKN040 PROB30 TEMPO 2314/2318 TS